sim
Sign-in with your pilot id or email,
or register
Callsign
Passwort

Schedule Details

Flight Number: OEO8824
Departure: Stuttgart Airport (EDDS) at 09:15
Arrival: Munich Airport (EDDM) at 10:25

Weather Information
Getting current METAR information for EDDS 281050Z VRB03KT 9999 FEW025 15/06 Q1011 NOSIG
Getting current METAR information for EDDM 281050Z 26004KT 210V310 9999 FEW007 09/07 Q1011 NOSIG

Schedule Frequency

Route Map